Puerto Barrios Airport
MGPB : now visible

Airfield :











YOU CAN JOIN US ON...

 
LOGIN :

Register | Disclaimer

   EN    FR    IT 

 









Legend :    VFR   Marginal VFR   IFR   Intensive IFR   Very Intensive IFR
Visi :
Ceiling :
>= 8 km
>= 3000ft
5 to 8 km
1000 to 3000 ft
1500m to 5 km
500 to 1000 ft
800 to 1500m
200 to 500 ft
< 800m
< 200 ft
Symbols :   Thunderstorms  Fog  Heavy snow  Heavy precipitations  Wind > 20 kt






- Airport Elevation : 33 ft
- IATA code : PBR


MGPB - Puerto Barrios

CURRENT METAR :
  • 232200Z 36006KT 9999 FEW020 BKN200 29/24 Q1008 A2977

EXPIRED METARs :
  • 232100Z 36008KT 9999 SCT020 BKN200 29/25 Q1008 A2977
  • 232000Z 36008KT 9999 SCT020 BKN200 29/24 Q1009 A2980

TAF TAF MGPB
Valid from the 23 at 18:00 until the 24 at 18:00 UTC


2318/2418 04008KT 9999 SCT018 BKN080 TX30/2320Z TN23/2412Z
TEMPO 2318/2418 8000 TSRA FEW025CB
BECMG 2401/2403 00000KT SCT016 BKN080
BECMG 2414/2416 03006KT SCT018



MET'MAP, your aeronautical weather chart ! - Copyright ORBIFLY December 2007 - Disclaimer

ORBIFLY MET'MAP TEAM :

Programming & Development : Alexandra Zaïnal
Concept & Development : Baudouin d'Aumeries
Co-Development & Prog : Marc-Olivier Méhu
Technical & hardware support : Manuel Goepfert

Contact : metmap@orbifly.com




SOURCES & CREDITS :

   NOAA       Earth
Advisory